Time;durP1;ratioP1;P1;durP2;ratioP2;P2;SDS_P1;SDS_P2;PMS_P1;PMS_P2;Temp;Humidity;BMP_temperature;BMP_pressure;BME280_temperature;BME280_humidity;BME280_pressure;Samples;Min_cycle;Max_cycle;Signal;HPM_P1;HPM_P2
2023/01/01 00:01:47;;;;;;;15.15;10.93;;;16.20;94.60;;;;;;5071057;28;20507;-55
2023/01/01 00:04:33;;;;;;;16.08;11.35;;;16.20;94.50;;;;;;5071131;28;20037;-58
2023/01/01 00:07:19;;;;;;;16.60;10.05;;;16.30;94.50;;;;;;5069280;28;20020;-57
2023/01/01 00:13:12;;;;;;;15.73;10.45;;;16.20;94.40;;;;;;5071110;28;20038;-55
2023/01/01 00:16:09;;;;;;;16.33;10.65;;;16.20;94.50;;;;;;5071030;28;20039;-54
2023/01/01 00:18:55;;;;;;;11.90;9.65;;;16.20;94.40;;;;;;5072041;28;20511;-54
2023/01/01 00:21:41;;;;;;;12.40;8.45;;;16.20;94.50;;;;;;5071649;28;20068;-55
2023/01/01 00:24:27;;;;;;;12.85;8.88;;;16.10;94.40;;;;;;5070553;28;20025;-55
2023/01/01 00:27:13;;;;;;;10.50;7.40;;;16.10;94.50;;;;;;5070679;28;20514;-55
2023/01/01 00:29:59;;;;;;;11.80;7.50;;;16.10;94.60;;;;;;5070522;28;20037;-54
2023/01/01 00:32:45;;;;;;;11.90;7.85;;;16.10;94.50;;;;;;5069671;28;20024;-55
2023/01/01 00:35:32;;;;;;;10.93;7.50;;;16.10;94.70;;;;;;5069803;28;20021;-54
2023/01/01 00:38:18;;;;;;;8.68;7.10;;;16.00;94.40;;;;;;5071427;28;20112;-57
2023/01/01 00:41:04;;;;;;;11.30;7.43;;;16.00;94.30;;;;;;5071525;28;20082;-57
2023/01/01 00:43:50;;;;;;;10.20;7.03;;;16.00;94.40;;;;;;5069864;28;20504;-56
2023/01/01 00:46:36;;;;;;;11.27;7.25;;;16.10;94.30;;;;;;5071234;28;20439;-54
2023/01/01 00:49:22;;;;;;;14.43;7.82;;;16.10;94.30;;;;;;5071596;28;20028;-57
2023/01/01 00:52:08;;;;;;;14.45;7.45;;;16.10;94.30;;;;;;5070756;28;20416;-51
2023/01/01 00:54:54;;;;;;;9.60;6.78;;;16.10;94.20;;;;;;5069664;28;20392;-54
2023/01/01 00:57:40;;;;;;;9.00;6.75;;;16.00;94.30;;;;;;5071064;28;20112;-53
2023/01/01 01:00:26;;;;;;;7.93;6.40;;;16.00;94.30;;;;;;5069668;28;20433;-51
2023/01/01 01:03:26;;;;;;;8.77;6.30;;;16.00;94.30;;;;;;5070643;28;20109;-53
2023/01/01 01:06:15;;;;;;;10.30;6.50;;;16.00;94.30;;;;;;5070799;28;20399;-52
2023/01/01 01:09:02;;;;;;;10.07;6.63;;;16.00;94.20;;;;;;5070685;28;20134;-55
2023/01/01 01:11:48;;;;;;;9.45;6.43;;;15.90;94.20;;;;;;5069542;28;20028;-53
2023/01/01 01:14:37;;;;;;;11.85;6.50;;;15.90;94.30;;;;;;5043673;28;20028;-55
2023/01/01 01:17:23;;;;;;;7.40;6.03;;;15.90;94.30;;;;;;5070332;28;20060;-54
2023/01/01 01:20:09;;;;;;;6.57;5.60;;;15.90;94.30;;;;;;5069306;28;20021;-50
2023/01/01 01:22:55;;;;;;;7.20;5.53;;;15.90;94.30;;;;;;5071013;28;20029;-55
2023/01/01 01:25:41;;;;;;;8.50;5.63;;;15.90;94.30;;;;;;5073418;28;20424;-54
2023/01/01 01:28:29;;;;;;;7.32;5.38;;;15.90;94.30;;;;;;5073992;28;20075;-54
2023/01/01 01:31:17;;;;;;;8.30;5.40;;;15.80;94.40;;;;;;5073192;28;20059;-56
2023/01/01 01:34:03;;;;;;;9.18;5.13;;;15.70;94.40;;;;;;5072940;28;20024;-51
2023/01/01 01:36:51;;;;;;;9.07;5.03;;;15.80;94.40;;;;;;5072774;28;20192;-54
2023/01/01 01:39:38;;;;;;;9.52;5.13;;;15.70;94.40;;;;;;5073810;28;20027;-51
2023/01/01 01:42:24;;;;;;;8.57;5.15;;;15.70;94.50;;;;;;5073698;28;20017;-54
2023/01/01 01:45:10;;;;;;;8.50;5.30;;;15.60;94.50;;;;;;5073559;28;20051;-49
2023/01/01 01:47:58;;;;;;;8.15;5.38;;;15.60;94.50;;;;;;5073993;28;20074;-55
2023/01/01 01:50:46;;;;;;;9.93;4.97;;;15.60;94.50;;;;;;5072239;28;20531;-56
2023/01/01 01:53:35;;;;;;;7.15;4.93;;;15.60;94.60;;;;;;5074030;28;20064;-54
2023/01/01 01:56:36;;;;;;;12.10;4.80;;;15.60;94.60;;;;;;5073313;28;20174;-50
2023/01/01 01:59:25;;;;;;;14.60;5.30;;;15.60;94.60;;;;;;5073916;28;20518;-54
2023/01/01 02:02:26;;;;;;;8.07;5.25;;;15.50;94.70;;;;;;5072564;28;20039;-53
2023/01/01 02:05:12;;;;;;;8.38;4.95;;;15.50;94.80;;;;;;5074438;28;20396;-56
2023/01/01 02:07:59;;;;;;;7.75;5.35;;;15.40;94.80;;;;;;5073296;28;20137;-52
2023/01/01 02:10:45;;;;;;;7.40;4.57;;;15.40;95.00;;;;;;5073243;28;20154;-51
2023/01/01 02:13:31;;;;;;;14.23;5.72;;;15.40;95.00;;;;;;5071935;28;20025;-54
2023/01/01 02:16:21;;;;;;;9.73;4.80;;;15.30;95.10;;;;;;5072947;28;20132;-53
2023/01/01 02:19:19;;;;;;;9.02;5.22;;;15.30;95.10;;;;;;5073676;28;20025;-55
2023/01/01 02:22:15;;;;;;;8.18;4.22;;;15.30;95.10;;;;;;5073569;28;20024;-52
2023/01/01 02:25:20;;;;;;;7.53;5.03;;;15.30;95.00;;;;;;5073352;28;20032;-51
2023/01/01 02:28:18;;;;;;;9.15;5.00;;;15.30;95.10;;;;;;5073106;28;20081;-55
2023/01/01 02:31:05;;;;;;;8.88;5.18;;;15.30;95.20;;;;;;5072722;28;20219;-56
2023/01/01 02:33:54;;;;;;;9.00;5.35;;;15.20;95.30;;;;;;5073543;28;20024;-53
2023/01/01 02:36:47;;;;;;;10.00;5.32;;;15.10;95.50;;;;;;5072702;28;20043;-53
2023/01/01 02:39:37;;;;;;;11.65;5.20;;;15.10;95.40;;;;;;5073117;28;20115;-49
2023/01/01 02:42:27;;;;;;;8.07;4.97;;;15.10;95.40;;;;;;5072488;28;20032;-54
2023/01/01 02:45:13;;;;;;;8.00;4.90;;;15.20;95.20;;;;;;5072537;28;20413;-49
2023/01/01 02:48:26;;;;;;;9.18;4.80;;;15.10;95.20;;;;;;5072723;28;20048;-44
2023/01/01 02:51:58;;;;;;;9.20;4.93;;;15.20;95.10;;;;;;5072895;28;20047;-47
2023/01/01 02:54:44;;;;;;;10.60;4.75;;;15.20;95.00;;;;;;5011272;28;20030;-47
2023/01/01 02:57:44;;;;;;;9.48;4.53;;;15.20;95.10;;;;;;5073012;28;20112;-49
2023/01/01 03:00:32;;;;;;;8.05;4.50;;;15.20;95.00;;;;;;5072787;28;20442;-45
2023/01/01 03:03:18;;;;;;;8.25;4.20;;;15.20;94.90;;;;;;5072770;28;20100;-46
2023/01/01 03:06:22;;;;;;;9.93;4.40;;;15.20;95.10;;;;;;5072919;28;20027;-46
2023/01/01 03:09:36;;;;;;;10.70;4.65;;;15.30;95.10;;;;;;5072316;28;20395;-48
2023/01/01 03:12:38;;;;;;;9.43;4.50;;;15.20;95.40;;;;;;5072362;28;20115;-46
2023/01/01 03:15:28;;;;;;;8.88;4.60;;;15.10;95.20;;;;;;5072529;28;20024;-47
2023/01/01 03:18:21;;;;;;;6.47;4.60;;;15.00;95.40;;;;;;5070765;28;20459;-47
2023/01/01 03:21:09;;;;;;;6.90;4.40;;;15.00;95.50;;;;;;5073300;28;20021;-47
2023/01/01 03:23:55;;;;;;;8.98;4.82;;;15.00;95.90;;;;;;5072859;28;20480;-45
2023/01/01 03:26:43;;;;;;;9.20;4.43;;;15.00;95.60;;;;;;5072617;28;20040;-48
2023/01/01 03:29:34;;;;;;;8.82;5.05;;;15.00;95.50;;;;;;5071261;28;20036;-47
2023/01/01 03:32:58;;;;;;;10.18;4.90;;;15.00;95.50;;;;;;5072490;28;20195;-45
2023/01/01 03:35:45;;;;;;;10.35;4.70;;;14.90;95.70;;;;;;5071588;28;20051;-49
2023/01/01 03:38:54;;;;;;;7.35;4.90;;;14.90;95.60;;;;;;5072622;28;20516;-49
2023/01/01 03:41:52;;;;;;;10.23;4.95;;;14.90;95.60;;;;;;5072088;28;20028;-49
2023/01/01 03:44:45;;;;;;;10.32;4.65;;;14.90;95.70;;;;;;5070757;28;20024;-46
2023/01/01 03:47:32;;;;;;;9.93;4.40;;;14.80;95.80;;;;;;5071581;28;20035;-51
2023/01/01 03:50:24;;;;;;;10.18;4.63;;;14.90;95.80;;;;;;5070572;28;20028;-47
2023/01/01 03:53:23;;;;;;;10.02;4.45;;;14.80;95.80;;;;;;5072151;28;20055;-45
2023/01/01 03:56:33;;;;;;;7.68;4.35;;;14.80;95.90;;;;;;5071635;28;20453;-52
2023/01/01 03:59:56;;;;;;;10.35;5.10;;;14.90;95.90;;;;;;5072055;28;20024;-48
2023/01/01 04:02:53;;;;;;;9.93;4.60;;;14.80;95.90;;;;;;5048100;28;20081;-46
2023/01/01 04:05:41;;;;;;;8.38;4.15;;;14.70;96.00;;;;;;5071869;28;20071;-48
2023/01/01 04:08:27;;;;;;;8.88;4.22;;;14.70;96.10;;;;;;5071481;28;20020;-45
2023/01/01 04:12:04;;;;;;;7.38;4.65;;;14.70;96.30;;;;;;5072070;28;20033;-54
2023/01/01 04:14:28;;;;;;;8.60;4.50;;;14.70;96.10;;;;;;5070102;28;20198;-56
2023/01/01 04:17:14;;;;;;;8.05;4.72;;;14.70;96.40;;;;;;5071393;28;20454;-58
2023/01/01 04:20:00;;;;;;;9.27;5.10;;;14.70;96.30;;;;;;5070230;28;20089;-55
2023/01/01 04:22:46;;;;;;;10.57;5.32;;;14.70;96.30;;;;;;5071633;28;20416;-57
2023/01/01 04:25:32;;;;;;;7.90;5.18;;;14.70;96.30;;;;;;5071592;28;20029;-58
2023/01/01 04:28:19;;;;;;;7.57;4.57;;;14.60;96.30;;;;;;5071347;28;20408;-52
2023/01/01 04:31:05;;;;;;;10.35;4.95;;;14.60;96.30;;;;;;5071561;28;20029;-52
2023/01/01 04:33:53;;;;;;;8.40;4.95;;;14.60;96.50;;;;;;5070955;28;20029;-55
2023/01/01 04:36:39;;;;;;;7.70;4.80;;;14.60;96.40;;;;;;5071534;28;20029;-52
2023/01/01 04:39:25;;;;;;;7.22;4.70;;;14.60;96.50;;;;;;5073530;28;20058;-53
2023/01/01 04:42:11;;;;;;;6.95;4.32;;;14.70;96.40;;;;;;5074067;28;20024;-57
2023/01/01 04:44:56;;;;;;;10.25;5.00;;;14.70;96.30;;;;;;5073983;28;20028;-56
2023/01/01 04:47:43;;;;;;;8.85;4.57;;;14.60;96.50;;;;;;5072552;28;20025;-54
2023/01/01 04:50:29;;;;;;;9.57;4.75;;;14.60;96.50;;;;;;5069762;28;20037;-55
2023/01/01 04:53:15;;;;;;;8.10;4.38;;;14.60;96.60;;;;;;5071498;28;20036;-56
2023/01/01 04:56:04;;;;;;;10.07;4.90;;;14.60;96.70;;;;;;5071304;28;20557;-56
2023/01/01 04:58:50;;;;;;;8.88;4.30;;;14.50;96.70;;;;;;5072122;28;20027;-55
2023/01/01 05:01:36;;;;;;;7.75;4.65;;;14.50;96.80;;;;;;5073213;28;20372;-55
2023/01/01 05:04:22;;;;;;;9.88;4.82;;;14.50;96.80;;;;;;5074371;28;20078;-53
2023/01/01 05:07:08;;;;;;;12.80;5.32;;;14.50;96.80;;;;;;5073447;28;20017;-56
2023/01/01 05:09:54;;;;;;;7.38;4.70;;;14.50;96.90;;;;;;5074259;28;20148;-55
2023/01/01 05:12:40;;;;;;;7.22;5.07;;;14.50;96.80;;;;;;5074981;28;20107;-55
2023/01/01 05:15:25;;;;;;;8.10;4.85;;;14.50;96.70;;;;;;5074841;28;20037;-54
2023/01/01 05:18:11;;;;;;;6.47;4.97;;;14.60;96.70;;;;;;5074651;28;20504;-55
2023/01/01 05:21:06;;;;;;;7.03;4.90;;;14.60;96.70;;;;;;5074106;28;20500;-51
2023/01/01 05:23:58;;;;;;;7.70;4.60;;;14.60;96.70;;;;;;5072320;28;20500;-52
2023/01/01 05:26:44;;;;;;;10.25;5.38;;;14.60;96.70;;;;;;5073972;28;20116;-55
2023/01/01 05:29:30;;;;;;;7.75;5.35;;;14.60;96.60;;;;;;5072776;28;20033;-54
2023/01/01 05:32:16;;;;;;;7.88;5.45;;;14.60;96.70;;;;;;5073966;28;20025;-52
2023/01/01 05:35:02;;;;;;;7.75;5.40;;;14.60;96.60;;;;;;5074556;28;20052;-50
2023/01/01 05:37:48;;;;;;;8.57;4.90;;;14.60;96.60;;;;;;5073621;28;20020;-53
2023/01/01 05:40:34;;;;;;;10.60;5.43;;;14.60;96.50;;;;;;5072138;28;20523;-54
2023/01/01 05:43:19;;;;;;;8.30;5.28;;;14.70;96.40;;;;;;5073997;28;20273;-56
2023/01/01 05:46:09;;;;;;;8.13;4.85;;;14.70;96.40;;;;;;5074340;28;20427;-51
2023/01/01 05:48:55;;;;;;;6.85;4.97;;;14.70;96.40;;;;;;5074512;28;20040;-52
2023/01/01 05:51:41;;;;;;;7.38;5.47;;;14.70;96.30;;;;;;5074453;28;20025;-54
2023/01/01 05:54:27;;;;;;;8.88;5.63;;;14.80;96.20;;;;;;5072131;28;20558;-56
2023/01/01 05:57:13;;;;;;;6.07;5.15;;;14.80;96.20;;;;;;5072225;28;20025;-56
2023/01/01 05:59:59;;;;;;;6.88;5.68;;;14.80;96.20;;;;;;5073552;28;20025;-54
2023/01/01 06:02:45;;;;;;;8.20;5.40;;;14.90;96.10;;;;;;5074177;28;20044;-53
2023/01/01 06:05:31;;;;;;;8.52;4.95;;;14.80;96.20;;;;;;5073965;28;20104;-55
2023/01/01 06:08:17;;;;;;;7.93;5.03;;;14.80;96.20;;;;;;5073947;28;20021;-52
2023/01/01 06:11:05;;;;;;;6.45;4.78;;;14.80;96.50;;;;;;5072711;28;20029;-51
2023/01/01 06:13:55;;;;;;;6.32;5.03;;;14.80;96.20;;;;;;5074300;28;20449;-53
2023/01/01 06:16:41;;;;;;;8.73;5.30;;;14.80;96.20;;;;;;5072896;28;20030;-51
2023/01/01 06:19:27;;;;;;;9.73;5.93;;;14.80;96.20;;;;;;5071484;28;20500;-52
2023/01/01 06:22:13;;;;;;;7.22;5.15;;;14.70;96.20;;;;;;5073097;28;20518;-51
2023/01/01 06:24:59;;;;;;;7.78;5.10;;;14.70;96.10;;;;;;5073810;28;20052;-56
2023/01/01 06:27:45;;;;;;;8.77;5.97;;;14.70;96.20;;;;;;5073238;28;20370;-56
2023/01/01 06:30:33;;;;;;;7.30;5.22;;;14.70;96.20;;;;;;5073872;28;20090;-56
2023/01/01 06:33:19;;;;;;;8.40;5.63;;;14.70;96.20;;;;;;5073438;28;20113;-55
2023/01/01 06:36:07;;;;;;;8.70;5.03;;;14.70;96.10;;;;;;5073335;28;20033;-54
2023/01/01 06:38:55;;;;;;;8.32;5.38;;;14.70;96.10;;;;;;5073649;28;20389;-56
2023/01/01 06:41:41;;;;;;;8.48;5.07;;;14.70;96.10;;;;;;5072801;28;20112;-55
2023/01/01 06:44:27;;;;;;;8.68;5.28;;;14.70;96.10;;;;;;5071829;28;20027;-52
2023/01/01 06:47:13;;;;;;;8.30;5.15;;;14.70;96.00;;;;;;5076809;28;20021;-46
2023/01/01 06:49:59;;;;;;;7.78;5.18;;;14.80;96.00;;;;;;5077007;28;20075;-45
2023/01/01 06:52:46;;;;;;;9.45;5.97;;;14.80;96.00;;;;;;5076911;28;20060;-44
2023/01/01 06:55:32;;;;;;;10.10;6.32;;;14.60;96.10;;;;;;5071867;28;20496;-51
2023/01/01 06:58:18;;;;;;;9.15;5.85;;;14.60;96.30;;;;;;5071283;28;20036;-51
2023/01/01 07:01:09;;;;;;;9.57;5.80;;;14.60;96.30;;;;;;5072597;28;20508;-45
2023/01/01 07:04:00;;;;;;;7.80;5.50;;;14.60;96.30;;;;;;5072995;28;20503;-47
2023/01/01 07:06:46;;;;;;;10.60;6.13;;;14.60;96.30;;;;;;5072192;28;20515;-51
2023/01/01 07:09:32;;;;;;;9.55;5.85;;;14.50;96.40;;;;;;5072917;28;20399;-44
2023/01/01 07:12:18;;;;;;;7.53;5.13;;;14.60;96.50;;;;;;5072907;28;20377;-46
2023/01/01 07:15:04;;;;;;;9.98;5.07;;;14.50;96.50;;;;;;5072887;28;20028;-51
2023/01/01 07:17:50;;;;;;;9.05;5.13;;;14.50;96.60;;;;;;5071883;28;20029;-46
2023/01/01 07:20:36;;;;;;;8.18;5.65;;;14.50;96.60;;;;;;5071113;28;20029;-47
2023/01/01 07:23:23;;;;;;;18.02;10.48;;;14.40;96.60;;;;;;5071838;28;20024;-45
2023/01/01 07:26:10;;;;;;;8.15;5.93;;;14.40;96.70;;;;;;5072033;28;20023;-46
2023/01/01 07:28:56;;;;;;;7.80;5.10;;;14.40;96.80;;;;;;5072261;28;20059;-47
2023/01/01 07:31:43;;;;;;;11.88;6.80;;;14.40;96.80;;;;;;5072929;28;20051;-45
2023/01/01 07:34:29;;;;;;;12.05;6.97;;;14.40;96.90;;;;;;5071914;28;20408;-53
2023/01/01 07:37:15;;;;;;;10.52;6.40;;;14.40;96.90;;;;;;5070330;28;20039;-45
2023/01/01 07:40:01;;;;;;;31.23;22.90;;;14.40;97.00;;;;;;5072222;28;20024;-46
2023/01/01 07:42:47;;;;;;;14.13;8.80;;;14.30;97.10;;;;;;5071914;28;20027;-46
2023/01/01 07:45:33;;;;;;;8.32;5.38;;;14.30;97.10;;;;;;5072266;28;20098;-47
2023/01/01 07:48:19;;;;;;;7.93;5.70;;;14.30;97.10;;;;;;5071578;28;20020;-49
2023/01/01 07:51:05;;;;;;;10.55;6.65;;;14.30;97.20;;;;;;5072595;28;20445;-50
2023/01/01 07:53:51;;;;;;;8.20;5.35;;;14.30;97.20;;;;;;5072423;28;20033;-50
2023/01/01 07:56:37;;;;;;;7.70;5.03;;;14.20;97.40;;;;;;5071853;28;20039;-47
2023/01/01 07:59:23;;;;;;;8.05;5.18;;;14.20;97.50;;;;;;5072651;28;20052;-45
2023/01/01 08:02:11;;;;;;;10.43;7.43;;;14.20;97.60;;;;;;5072385;28;20024;-45
2023/01/01 08:04:57;;;;;;;8.77;5.65;;;14.20;97.60;;;;;;5072207;28;20048;-46
2023/01/01 08:07:48;;;;;;;9.38;7.43;;;14.20;97.90;;;;;;5070611;28;20029;-45
2023/01/01 08:10:33;;;;;;;9.18;7.15;;;14.30;97.60;;;;;;5072341;28;20404;-45
2023/01/01 08:13:19;;;;;;;7.85;5.22;;;14.20;97.70;;;;;;5072126;28;20033;-49
2023/01/01 08:16:06;;;;;;;7.45;5.53;;;14.20;97.70;;;;;;5071452;28;20502;-45
2023/01/01 08:18:52;;;;;;;8.55;6.03;;;14.20;98.10;;;;;;5072246;28;20042;-46
2023/01/01 08:21:37;;;;;;;12.10;7.03;;;14.20;97.80;;;;;;5071825;28;20047;-45
2023/01/01 08:24:23;;;;;;;11.18;5.43;;;14.20;97.80;;;;;;5072253;28;20373;-45
2023/01/01 08:27:15;;;;;;;7.38;5.10;;;14.20;97.80;;;;;;5071274;28;20035;-44
2023/01/01 08:30:01;;;;;;;9.00;5.10;;;14.30;97.80;;;;;;5072884;28;20108;-52
2023/01/01 08:32:47;;;;;;;7.38;5.10;;;14.30;97.80;;;;;;5072197;28;20040;-55
2023/01/01 08:35:36;;;;;;;12.05;5.55;;;14.40;97.80;;;;;;5075724;28;20060;-50
2023/01/01 08:38:22;;;;;;;10.05;4.90;;;14.40;97.70;;;;;;5076087;28;20028;-48
2023/01/01 08:41:08;;;;;;;9.93;5.38;;;14.40;97.70;;;;;;5077613;28;20097;-45
2023/01/01 08:43:54;;;;;;;7.35;4.88;;;14.40;97.80;;;;;;5075548;28;20024;-45
2023/01/01 08:46:40;;;;;;;7.82;5.57;;;14.30;97.90;;;;;;5074810;28;20093;-44
2023/01/01 08:49:26;;;;;;;14.40;8.50;;;14.30;97.90;;;;;;5075859;28;20029;-46
2023/01/01 08:52:13;;;;;;;8.98;5.40;;;14.40;97.80;;;;;;5075938;28;20062;-47
2023/01/01 08:54:59;;;;;;;9.25;5.70;;;14.40;97.90;;;;;;5075967;28;20043;-46
2023/01/01 08:57:45;;;;;;;11.38;6.28;;;14.50;97.90;;;;;;5075099;28;20043;-52
2023/01/01 09:00:31;;;;;;;6.97;5.82;;;14.50;97.80;;;;;;5075152;28;20078;-47
2023/01/01 09:03:17;;;;;;;12.10;6.93;;;14.60;97.70;;;;;;5075707;28;20021;-46
2023/01/01 09:06:03;;;;;;;8.13;6.00;;;14.50;97.80;;;;;;5074497;28;20497;-46
2023/01/01 09:08:50;;;;;;;8.55;5.95;;;14.60;97.70;;;;;;5074475;28;20570;-44
2023/01/01 09:11:36;;;;;;;10.57;6.07;;;14.70;97.60;;;;;;5076910;28;20103;-52
2023/01/01 09:14:22;;;;;;;10.20;5.65;;;14.70;97.60;;;;;;5083125;28;20040;-54
2023/01/01 09:17:08;;;;;;;9.70;6.68;;;14.70;97.60;;;;;;5082449;28;20035;-54
2023/01/01 09:19:54;;;;;;;8.57;6.32;;;14.70;97.60;;;;;;5076805;28;20035;-46
2023/01/01 09:22:40;;;;;;;12.18;7.53;;;14.70;97.60;;;;;;5074495;28;20395;-51
2023/01/01 09:25:26;;;;;;;11.27;6.25;;;14.70;97.70;;;;;;5077034;28;20472;-46
2023/01/01 09:28:13;;;;;;;11.32;7.28;;;14.80;97.60;;;;;;5075613;28;20040;-45
2023/01/01 09:31:00;;;;;;;11.32;6.95;;;14.80;97.60;;;;;;5075451;28;20028;-47
2023/01/01 09:33:46;;;;;;;10.57;6.45;;;14.90;97.50;;;;;;5075499;28;20033;-46
2023/01/01 09:36:32;;;;;;;8.45;5.93;;;14.90;97.50;;;;;;5075184;28;20024;-46
2023/01/01 09:39:18;;;;;;;9.85;6.13;;;14.90;97.50;;;;;;5074433;28;20033;-45
2023/01/01 09:42:21;;;;;;;10.48;6.70;;;14.90;97.60;;;;;;5074485;28;20419;-47
2023/01/01 09:45:25;;;;;;;12.05;6.80;;;15.00;97.30;;;;;;5073929;28;20395;-54
2023/01/01 09:48:14;;;;;;;8.77;6.43;;;15.00;97.40;;;;;;5074302;28;20075;-48
2023/01/01 09:51:04;;;;;;;9.85;6.13;;;15.00;97.30;;;;;;5074432;28;20017;-47
2023/01/01 09:54:17;;;;;;;11.52;7.25;;;15.00;97.30;;;;;;5074207;28;20104;-50
2023/01/01 09:57:07;;;;;;;10.15;6.95;;;15.00;97.20;;;;;;5075068;28;20024;-49
2023/01/01 09:59:54;;;;;;;13.98;7.82;;;15.10;97.20;;;;;;5075478;28;20024;-56
2023/01/01 10:03:27;;;;;;;10.65;7.85;;;15.10;97.20;;;;;;5074836;28;20028;-49
2023/01/01 10:06:19;;;;;;;11.90;7.40;;;15.10;97.30;;;;;;5013001;28;20141;-46
2023/01/01 10:09:20;;;;;;;10.48;7.55;;;15.10;97.30;;;;;;5075267;28;20035;-51
2023/01/01 10:12:16;;;;;;;13.45;7.50;;;15.10;97.30;;;;;;5075043;28;20017;-53
2023/01/01 10:15:17;;;;;;;11.02;7.90;;;15.20;97.40;;;;;;5075066;28;20111;-54
2023/01/01 10:18:16;;;;;;;11.88;7.90;;;15.20;97.40;;;;;;5072528;28;20086;-49
2023/01/01 10:21:20;;;;;;;10.98;7.80;;;15.30;97.50;;;;;;5075503;28;20028;-53
2023/01/01 10:24:22;;;;;;;12.40;8.27;;;15.30;97.60;;;;;;5074675;28;20534;-43
2023/01/01 10:27:29;;;;;;;11.82;7.63;;;15.30;97.70;;;;;;5074722;28;20032;-46
2023/01/01 10:30:21;;;;;;;9.05;6.80;;;15.30;97.70;;;;;;5074178;28;20036;-49
2023/01/01 10:33:13;;;;;;;10.10;7.75;;;15.30;97.70;;;;;;5075786;28;20407;-47
2023/01/01 10:35:59;;;;;;;11.40;7.75;;;15.30;97.80;;;;;;5075196;28;20024;-52
2023/01/01 10:38:47;;;;;;;10.40;7.55;;;15.30;97.80;;;;;;5073746;28;20056;-45
2023/01/01 10:41:33;;;;;;;12.65;8.20;;;15.30;97.90;;;;;;5074251;28;20446;-46
2023/01/01 10:44:29;;;;;;;12.60;7.85;;;15.30;98.00;;;;;;5073627;28;20071;-51
2023/01/01 10:47:23;;;;;;;12.02;8.27;;;15.30;98.00;;;;;;5074877;28;20027;-52
2023/01/01 10:50:09;;;;;;;9.68;7.25;;;15.30;98.10;;;;;;5072811;28;20024;-45
2023/01/01 10:52:56;;;;;;;12.02;7.90;;;15.30;98.10;;;;;;5072792;28;20165;-50
2023/01/01 10:55:41;;;;;;;13.52;8.35;;;15.30;98.10;;;;;;5071026;28;20071;-57
2023/01/01 10:58:44;;;;;;;14.02;8.13;;;15.40;98.10;;;;;;5073869;28;20108;-51
2023/01/01 11:01:32;;;;;;;9.48;7.22;;;15.40;98.10;;;;;;5072289;28;20033;-49
2023/01/01 11:04:20;;;;;;;12.48;7.55;;;15.40;98.10;;;;;;5072308;28;20069;-53
2023/01/01 11:07:06;;;;;;;10.88;7.53;;;15.40;98.00;;;;;;5072943;28;20028;-46
2023/01/01 11:09:57;;;;;;;12.00;8.02;;;15.50;97.90;;;;;;5073799;28;20036;-49
2023/01/01 11:12:43;;;;;;;10.80;7.38;;;15.50;97.80;;;;;;5073799;28;20024;-52
2023/01/01 11:15:36;;;;;;;13.95;7.47;;;15.60;97.80;;;;;;5072768;28;20025;-52
2023/01/01 11:18:34;;;;;;;11.85;7.00;;;15.60;97.80;;;;;;5073458;28;20036;-47
2023/01/01 11:21:22;;;;;;;9.93;6.75;;;15.60;97.60;;;;;;5071512;28;20024;-48
2023/01/01 11:24:20;;;;;;;7.53;6.53;;;15.60;97.60;;;;;;5073516;28;20017;-49
2023/01/01 11:27:22;;;;;;;10.25;7.05;;;15.70;97.40;;;;;;5071959;28;20021;-51
2023/01/01 11:30:25;;;;;;;12.45;7.60;;;15.80;97.40;;;;;;5074712;28;20032;-49
2023/01/01 11:33:15;;;;;;;11.95;7.43;;;15.80;97.40;;;;;;5078903;28;20038;-47
2023/01/01 11:36:03;;;;;;;12.93;7.30;;;15.80;97.50;;;;;;5077656;28;20051;-47
2023/01/01 11:39:15;;;;;;;9.93;6.55;;;15.90;97.30;;;;;;5076532;28;20021;-50
2023/01/01 11:42:02;;;;;;;10.27;6.32;;;15.90;97.20;;;;;;5073753;28;20028;-45
2023/01/01 11:44:52;;;;;;;11.23;6.47;;;15.90;97.30;;;;;;5073428;28;20020;-49
2023/01/01 11:47:39;;;;;;;9.70;6.43;;;15.90;97.30;;;;;;5072133;28;20028;-45
2023/01/01 11:50:33;;;;;;;12.98;6.75;;;15.90;97.30;;;;;;5073083;28;20031;-47
2023/01/01 11:53:22;;;;;;;11.90;6.65;;;15.80;97.30;;;;;;5072298;28;20116;-49
2023/01/01 11:56:21;;;;;;;13.38;7.03;;;15.90;97.30;;;;;;5072728;28;20028;-49
2023/01/01 11:59:17;;;;;;;12.13;7.05;;;15.90;97.30;;;;;;5070933;28;20028;-54
2023/01/01 12:02:08;;;;;;;10.25;6.28;;;15.90;97.40;;;;;;5071107;28;20037;-56
2023/01/01 12:05:19;;;;;;;11.98;6.25;;;16.00;97.40;;;;;;5072217;28;20021;-47
2023/01/01 12:08:09;;;;;;;15.30;7.10;;;15.90;97.50;;;;;;5072094;28;20021;-52
2023/01/01 12:11:02;;;;;;;13.73;6.60;;;15.90;97.60;;;;;;5073707;28;20058;-51
2023/01/01 12:13:56;;;;;;;11.93;6.75;;;15.90;97.60;;;;;;5072498;28;20029;-47
2023/01/01 12:17:08;;;;;;;11.73;6.47;;;15.90;97.60;;;;;;5072120;28;20028;-50
2023/01/01 12:20:13;;;;;;;9.27;6.18;;;15.90;97.70;;;;;;5070302;28;20035;-48
2023/01/01 12:23:00;;;;;;;11.13;6.53;;;15.90;97.60;;;;;;5071557;28;20031;-53
2023/01/01 12:26:05;;;;;;;10.70;6.22;;;15.90;97.50;;;;;;5072560;28;20033;-50
2023/01/01 12:29:21;;;;;;;11.23;6.55;;;15.80;97.60;;;;;;5072410;28;20092;-51
2023/01/01 12:32:13;;;;;;;11.32;6.07;;;15.90;97.60;;;;;;5070724;28;20024;-53
2023/01/01 12:35:24;;;;;;;16.40;6.78;;;15.90;97.70;;;;;;5072270;28;20021;-50
2023/01/01 12:38:31;;;;;;;10.30;6.20;;;15.90;97.70;;;;;;5072051;28;20488;-51
2023/01/01 12:41:48;;;;;;;10.88;6.03;;;15.90;97.80;;;;;;5072122;28;20467;-55
2023/01/01 12:45:03;;;;;;;10.70;5.65;;;15.90;97.90;;;;;;5070623;28;20024;-49
2023/01/01 12:48:04;;;;;;;11.85;5.90;;;15.80;97.80;;;;;;5072134;28;20020;-51
2023/01/01 12:50:57;;;;;;;12.00;6.15;;;15.80;97.90;;;;;;5071728;28;20063;-50
2023/01/01 12:54:13;;;;;;;10.68;5.45;;;15.80;98.10;;;;;;5072682;28;20165;-49
2023/01/01 12:57:11;;;;;;;10.73;5.80;;;15.80;98.10;;;;;;5072486;28;20032;-49
2023/01/01 13:00:00;;;;;;;8.45;6.30;;;15.80;98.20;;;;;;5072078;28;20067;-50
2023/01/01 13:03:13;;;;;;;10.65;5.90;;;15.80;98.20;;;;;;5071305;28;20056;-51
2023/01/01 13:06:00;;;;;;;9.50;5.57;;;15.90;98.20;;;;;;5071540;28;20498;-49
2023/01/01 13:08:51;;;;;;;9.15;5.55;;;15.80;98.20;;;;;;5072165;28;20029;-52
2023/01/01 13:11:39;;;;;;;12.45;6.35;;;15.80;98.30;;;;;;5072054;28;20029;-50
2023/01/01 13:14:25;;;;;;;11.40;5.75;;;15.80;98.20;;;;;;5071062;28;20090;-49
2023/01/01 13:17:28;;;;;;;10.38;6.07;;;15.80;98.40;;;;;;5071192;28;20086;-54
2023/01/01 13:20:22;;;;;;;10.18;5.75;;;15.80;98.30;;;;;;5073005;28;20031;-50
2023/01/01 13:23:30;;;;;;;11.63;5.28;;;15.80;98.40;;;;;;5075810;28;20012;-48
2023/01/01 13:26:21;;;;;;;9.77;5.15;;;15.70;98.60;;;;;;5075718;28;20025;-51
2023/01/01 13:29:10;;;;;;;12.10;5.25;;;15.70;98.70;;;;;;5074505;28;20032;-52
2023/01/01 13:32:01;;;;;;;14.05;6.47;;;15.60;98.90;;;;;;5073546;28;20027;-53
2023/01/01 13:35:01;;;;;;;10.00;6.20;;;15.60;99.00;;;;;;5075706;28;20024;-56
2023/01/01 13:37:47;;;;;;;9.50;5.38;;;15.60;99.10;;;;;;5075494;28;20070;-49
2023/01/01 13:40:47;;;;;;;9.30;5.43;;;15.50;99.10;;;;;;5076654;28;20028;-51
2023/01/01 13:43:33;;;;;;;10.30;5.57;;;15.50;99.10;;;;;;5074526;28;20025;-49
2023/01/01 13:46:34;;;;;;;9.27;5.57;;;15.50;99.20;;;;;;5073875;28;20036;-54
2023/01/01 13:49:26;;;;;;;13.25;5.85;;;15.40;99.40;;;;;;5074694;28;20025;-49
2023/01/01 13:52:58;;;;;;;10.35;5.50;;;15.50;99.30;;;;;;5073971;28;20085;-48
2023/01/01 13:56:01;;;;;;;9.25;4.68;;;15.50;99.50;;;;;;5074324;28;20040;-55
2023/01/01 13:59:04;;;;;;;8.95;5.57;;;15.50;99.30;;;;;;5074584;28;20052;-53
2023/01/01 14:01:59;;;;;;;10.40;5.50;;;15.60;99.20;;;;;;5073269;28;20290;-52
2023/01/01 14:04:54;;;;;;;9.95;5.30;;;15.50;99.40;;;;;;5074719;28;20027;-50
2023/01/01 14:07:51;;;;;;;8.75;5.45;;;15.40;99.40;;;;;;5075089;28;20025;-48
2023/01/01 14:10:37;;;;;;;14.90;5.90;;;15.50;99.40;;;;;;5074399;28;20120;-54
2023/01/01 14:13:28;;;;;;;8.80;5.45;;;15.50;99.40;;;;;;5074392;28;20028;-53
2023/01/01 14:16:14;;;;;;;10.93;5.78;;;15.50;99.40;;;;;;5073756;28;20120;-54
2023/01/01 14:19:02;;;;;;;13.40;6.00;;;15.50;99.40;;;;;;5074709;28;20033;-50
2023/01/01 14:21:48;;;;;;;9.50;5.03;;;15.50;99.40;;;;;;5075009;28;20032;-50
2023/01/01 14:24:40;;;;;;;11.32;4.68;;;15.50;99.30;;;;;;5072732;28;20028;-49
2023/01/01 14:27:28;;;;;;;10.73;4.70;;;15.60;99.20;;;;;;5074247;28;20400;-49
2023/01/01 14:30:16;;;;;;;8.07;4.80;;;15.60;99.00;;;;;;5074324;28;20068;-52
2023/01/01 14:33:02;;;;;;;9.52;5.10;;;15.50;99.10;;;;;;5073655;28;20025;-55
2023/01/01 14:35:56;;;;;;;9.20;5.10;;;15.50;99.00;;;;;;5073587;28;20024;-50
2023/01/01 14:38:45;;;;;;;12.03;4.97;;;15.60;98.90;;;;;;5074697;28;20032;-55
2023/01/01 14:41:38;;;;;;;10.95;5.30;;;15.60;98.80;;;;;;5074377;28;20028;-50
2023/01/01 14:44:31;;;;;;;10.30;4.88;;;15.60;98.90;;;;;;5073999;28;20016;-57
2023/01/01 14:47:29;;;;;;;12.60;5.55;;;15.50;98.90;;;;;;5073500;28;20020;-52
2023/01/01 14:50:31;;;;;;;10.05;5.55;;;15.50;99.00;;;;;;5073965;28;20024;-54